Time;durP1;ratioP1;P1;durP2;ratioP2;P2;SDS_P1;SDS_P2;PMS_P1;PMS_P2;Temp;Humidity;BMP_temperature;BMP_pressure;BME280_temperature;BME280_humidity;BME280_pressure;Samples;Min_cycle;Max_cycle;Signal;HPM_P1;HPM_P2
2021/07/29 00:00:17;;;;;;;;;;;;;;;16.54;100.00;95887.84;1053449;28;19916;-72
2021/07/29 00:00:47;;;;;;;;;;;;;;;16.53;100.00;95880.88;1053396;28;19923;-72
2021/07/29 00:01:17;;;;;;;;;;;;;;;16.52;100.00;95881.97;1053403;28;19916;-72
2021/07/29 00:01:48;;;;;;;;;;;;;;;16.53;100.00;95885.44;1053254;28;19916;-71
2021/07/29 00:02:18;;;;;;;;;;;;;;;16.52;100.00;95883.88;1053365;28;19912;-71
2021/07/29 00:02:48;;;;;;;;;;;;;;;16.48;100.00;95875.63;1053370;28;19966;-71
2021/07/29 00:03:18;;;;;;;;;;;;;;;16.47;100.00;95879.41;1053191;28;19955;-72
2021/07/29 00:03:49;;;;;;;;;;;;;;;16.43;100.00;95881.16;1053304;28;19920;-71
2021/07/29 00:04:19;;;;;;;;;;;;;;;16.40;100.00;95873.66;1053263;28;19973;-71
2021/07/29 00:04:49;;;;;;;;;;;;;;;16.43;100.00;95886.53;1053406;28;19962;-71
2021/07/29 00:05:20;;;;;;;;;;;;;;;16.41;100.00;95877.16;1053394;28;20575;-71
2021/07/29 00:05:50;;;;;;;;;;;;;;;16.37;100.00;95883.16;1053322;28;20015;-70
2021/07/29 00:06:20;;;;;;;;;;;;;;;16.41;100.00;95877.94;1053431;28;19916;-71
2021/07/29 00:06:50;;;;;;;;;;;;;;;16.43;100.00;95880.31;1048873;28;19928;-71
2021/07/29 00:07:21;;;;;;;;;;;;;;;16.45;100.00;95878.13;1044789;28;19974;-72
2021/07/29 00:07:51;;;;;;;;;;;;;;;16.41;100.00;95879.84;1044809;28;20380;-71
2021/07/29 00:08:22;;;;;;;;;;;;;;;16.42;100.00;95882.22;1044723;28;20389;-71
2021/07/29 00:08:52;;;;;;;;;;;;;;;16.41;100.00;95877.16;1048867;28;19916;-72
2021/07/29 00:09:22;;;;;;;;;;;;;;;16.43;100.00;95880.31;1053341;28;20420;-71
2021/07/29 00:09:53;;;;;;;;;;;;;;;16.41;100.00;95885.25;1053432;28;19916;-71
2021/07/29 00:10:23;;;;;;;;;;;;;;;16.43;100.00;95885.72;1053222;28;19948;-71
2021/07/29 00:10:53;;;;;;;;;;;;;;;16.42;100.00;95886.81;1053344;28;19926;-72
2021/07/29 00:11:24;;;;;;;;;;;;;;;16.40;100.00;95886.34;1053413;28;19951;-71
2021/07/29 00:11:54;;;;;;;;;;;;;;;16.42;100.00;95884.13;1053617;28;20269;-71
2021/07/29 00:12:24;;;;;;;;;;;;;;;16.40;100.00;95881.75;1053600;28;19919;-71
2021/07/29 00:12:54;;;;;;;;;;;;;;;16.40;100.00;95883.66;1053653;28;19916;-71
2021/07/29 00:13:25;;;;;;;;;;;;;;;16.38;100.00;95883.97;1053536;28;19908;-71
2021/07/29 00:13:58;;;;;;;;;;;;;;;16.37;100.00;95885.06;1053593;28;20361;-71
2021/07/29 00:14:29;;;;;;;;;;;;;;;16.38;100.00;95881.28;1053572;28;20320;-71
2021/07/29 00:14:59;;;;;;;;;;;;;;;16.40;100.00;95880.97;1053643;28;19923;-71
2021/07/29 00:15:29;;;;;;;;;;;;;;;16.44;100.00;95881.94;1053697;28;19934;-71
2021/07/29 00:16:02;;;;;;;;;;;;;;;16.43;100.00;95881.16;1048984;28;19923;-71
2021/07/29 00:16:42;;;;;;;;;;;;;;;16.43;100.00;95885.72;1049034;28;20324;-71
2021/07/29 00:17:27;;;;;;;;;;;;;;;16.45;100.00;95887.00;1049183;28;19920;-71
2021/07/29 00:19:16;;;;;;;;;;;;;;;16.45;100.00;95883.53;1053533;28;19912;-71
2021/07/29 00:19:46;;;;;;;;;;;;;;;16.44;100.00;95881.94;1053582;28;19944;-71
2021/07/29 00:20:23;;;;;;;;;;;;;;;16.46;100.00;95877.81;1049063;28;19913;-71
2021/07/29 00:20:54;;;;;;;;;;;;;;;16.49;100.00;95873.72;1049081;28;19912;-71
2021/07/29 00:21:24;;;;;;;;;;;;;;;16.47;100.00;95879.41;1049162;28;20320;-71
2021/07/29 00:21:54;;;;;;;;;;;;;;;16.45;100.00;95868.13;1050064;28;19912;-71
2021/07/29 00:22:24;;;;;;;;;;;;;;;16.45;100.00;95875.44;1053613;28;19908;-71
2021/07/29 00:22:58;;;;;;;;;;;;;;;16.44;100.00;95873.84;1053516;28;19973;-71
2021/07/29 00:23:28;;;;;;;;;;;;;;;16.45;100.00;95870.03;1053552;28;19908;-71
2021/07/29 00:23:59;;;;;;;;;;;;;;;16.43;100.00;95870.34;1053536;28;19908;-71
2021/07/29 00:24:29;;;;;;;;;;;;;;;16.42;100.00;95874.13;1053621;28;20420;-71
2021/07/29 00:25:00;;;;;;;;;;;;;;;16.42;100.00;95871.44;1049012;28;19916;-71
2021/07/29 00:25:31;;;;;;;;;;;;;;;16.44;100.00;95871.16;1049153;28;19908;-71
2021/07/29 00:26:01;;;;;;;;;;;;;;;16.44;100.00;95868.44;1049047;28;19916;-71
2021/07/29 00:26:31;;;;;;;;;;;;;;;16.43;100.00;95870.34;1049262;28;19974;-71
2021/07/29 00:27:01;;;;;;;;;;;;;;;16.42;100.00;95862.56;1053475;28;20365;-71
2021/07/29 00:27:33;;;;;;;;;;;;;;;16.41;100.00;95869.06;1053552;28;19954;-71
2021/07/29 00:28:04;;;;;;;;;;;;;;;16.40;100.00;95870.16;1053462;28;19908;-71
2021/07/29 00:28:34;;;;;;;;;;;;;;;16.41;100.00;95866.34;1053591;28;19908;-71
2021/07/29 00:29:04;;;;;;;;;;;;;;;16.39;100.00;95866.69;1053549;28;19912;-72
2021/07/29 00:29:34;;;;;;;;;;;;;;;16.40;100.00;95870.97;1053506;28;19939;-72
2021/07/29 00:30:05;;;;;;;;;;;;;;;16.38;100.00;95870.50;1053558;28;19920;-71
2021/07/29 00:30:35;;;;;;;;;;;;;;;16.38;100.00;95870.50;1053609;28;20416;-71
2021/07/29 00:31:05;;;;;;;;;;;;;;;16.38;100.00;95865.09;1053083;28;19920;-71
2021/07/29 00:31:36;;;;;;;;;;;;;;;16.38;100.00;95873.19;1053620;28;19912;-71
2021/07/29 00:32:06;;;;;;;;;;;;;;;16.39;100.00;95872.06;1053519;28;20330;-71
2021/07/29 00:32:36;;;;;;;;;;;;;;;16.40;100.00;95876.34;1053179;28;19912;-71
2021/07/29 00:33:07;;;;;;;;;;;;;;;16.36;100.00;95869.97;1053143;28;20391;-71
2021/07/29 00:33:37;;;;;;;;;;;;;;;16.39;100.00;95869.38;1053651;28;19955;-71
2021/07/29 00:34:07;;;;;;;;;;;;;;;16.41;100.00;95871.75;1053208;28;19920;-71
2021/07/29 00:34:38;;;;;;;;;;;;;;;16.41;100.00;95874.44;1048789;28;19958;-70
2021/07/29 00:35:09;;;;;;;;;;;;;;;16.41;100.00;95871.75;1049088;28;20412;-71
2021/07/29 00:35:39;;;;;;;;;;;;;;;16.44;100.00;95868.44;1049111;28;19904;-71
2021/07/29 00:36:19;;;;;;;;;;;;;;;16.45;100.00;95870.03;1049219;28;20401;-71
2021/07/29 00:36:50;;;;;;;;;;;;;;;16.45;100.00;95870.84;1053553;28;19923;-71
2021/07/29 00:37:20;;;;;;;;;;;;;;;16.48;100.00;95872.09;1053535;28;19978;-71
2021/07/29 00:37:52;;;;;;;;;;;;;;;16.47;100.00;95873.22;1053517;28;19940;-71
2021/07/29 00:38:22;;;;;;;;;;;;;;;16.49;100.00;95869.09;1053535;28;19956;-71
2021/07/29 00:38:53;;;;;;;;;;;;;;;16.44;100.00;95877.34;1053542;28;19919;-71
2021/07/29 00:39:23;;;;;;;;;;;;;;;16.41;100.00;95879.84;1053358;28;20377;-71
2021/07/29 00:39:53;;;;;;;;;;;;;;;16.44;100.00;95869.25;1053540;28;19912;-71
2021/07/29 00:40:23;;;;;;;;;;;;;;;16.45;100.00;95873.53;1052605;28;19919;-71
2021/07/29 00:40:54;;;;;;;;;;;;;;;16.44;100.00;95868.44;1053494;28;19969;-71
2021/07/29 00:41:24;;;;;;;;;;;;;;;16.44;100.00;95865.75;1053526;28;19920;-71
2021/07/29 00:41:54;;;;;;;;;;;;;;;16.44;100.00;95869.25;1053501;28;19958;-71
2021/07/29 00:42:25;;;;;;;;;;;;;;;16.46;100.00;95869.72;1053503;28;19908;-71
2021/07/29 00:42:55;;;;;;;;;;;;;;;16.49;100.00;95882.59;1053478;28;19915;-71
2021/07/29 00:43:25;;;;;;;;;;;;;;;16.48;100.00;95872.09;1053519;28;19918;-71
2021/07/29 00:44:03;;;;;;;;;;;;;;;16.50;100.00;95876.09;1053492;28;20280;-71
2021/07/29 00:44:34;;;;;;;;;;;;;;;16.52;100.00;95867.69;1053475;28;20457;-71
2021/07/29 00:45:05;;;;;;;;;;;;;;;16.52;100.00;95873.88;1053500;28;19913;-71
2021/07/29 00:45:35;;;;;;;;;;;;;;;16.50;100.00;95870.69;1053444;28;20359;-71
2021/07/29 00:46:05;;;;;;;;;;;;;;;16.50;100.00;95870.69;1053301;28;19939;-71
2021/07/29 00:46:36;;;;;;;;;;;;;;;16.51;100.00;95866.09;1053527;28;19912;-71
2021/07/29 00:47:06;;;;;;;;;;;;;;;16.46;100.00;95872.41;1048949;28;19920;-71
2021/07/29 00:47:41;;;;;;;;;;;;;;;16.49;100.00;95863.72;1049057;28;19920;-71
2021/07/29 00:48:13;;;;;;;;;;;;;;;16.48;100.00;95864.81;1048971;28;19919;-71
2021/07/29 00:48:43;;;;;;;;;;;;;;;16.48;100.00;95864.81;1045511;28;19912;-71
2021/07/29 00:49:14;;;;;;;;;;;;;;;16.46;100.00;95858.94;1044875;28;19944;-71
2021/07/29 00:49:44;;;;;;;;;;;;;;;16.47;100.00;95862.41;1044781;28;19944;-71
2021/07/29 00:50:14;;;;;;;;;;;;;;;16.46;100.00;95864.31;1040868;28;19955;-71
2021/07/29 00:50:44;;;;;;;;;;;;;;;16.44;100.00;95863.84;1044830;28;19962;-71
2021/07/29 00:51:15;;;;;;;;;;;;;;;16.45;100.00;95862.75;1048861;28;20373;-72
2021/07/29 00:51:45;;;;;;;;;;;;;;;16.46;100.00;95866.22;1048904;28;19985;-71
2021/07/29 00:52:16;;;;;;;;;;;;;;;16.45;100.00;95857.34;1053429;28;19916;-71
2021/07/29 00:52:47;;;;;;;;;;;;;;;16.46;100.00;95850.84;1053397;28;20323;-71
2021/07/29 00:53:17;;;;;;;;;;;;;;;16.46;100.00;95848.13;1053392;28;19916;-71
2021/07/29 00:53:48;;;;;;;;;;;;;;;16.47;100.00;95860.50;1053311;28;19908;-71
2021/07/29 00:54:18;;;;;;;;;;;;;;;16.48;100.00;95851.34;1048903;28;20008;-72
2021/07/29 00:54:49;;;;;;;;;;;;;;;16.51;100.00;95858.00;1048960;28;19962;-71
2021/07/29 00:55:20;;;;;;;;;;;;;;;16.50;100.00;95859.91;1048807;28;20325;-71
2021/07/29 00:55:50;;;;;;;;;;;;;;;16.50;100.00;95857.22;1048687;28;19919;-70
2021/07/29 00:56:20;;;;;;;;;;;;;;;16.50;100.00;95859.91;1053380;28;20000;-71
2021/07/29 00:56:50;;;;;;;;;;;;;;;16.53;100.00;95855.78;1053389;28;19908;-71
2021/07/29 00:57:21;;;;;;;;;;;;;;;16.53;100.00;95853.06;1053370;28;19912;-71
2021/07/29 00:57:51;;;;;;;;;;;;;;;16.55;100.00;95857.06;1053323;28;20491;-72
2021/07/29 00:58:21;;;;;;;;;;;;;;;16.57;100.00;95859.44;1053276;28;20411;-71
2021/07/29 00:58:52;;;;;;;;;;;;;;;16.55;100.00;95867.06;1053397;28;20298;-71
2021/07/29 00:59:22;;;;;;;;;;;;;;;16.54;100.00;95857.41;1053330;28;19916;-71
2021/07/29 00:59:53;;;;;;;;;;;;;;;16.51;100.00;95858.78;1053345;28;20373;-71
2021/07/29 01:00:23;;;;;;;;;;;;;;;16.52;100.00;95860.38;1048849;28;19951;-71
2021/07/29 01:00:53;;;;;;;;;;;;;;;16.55;100.00;95858.97;1052832;28;19904;-71
2021/07/29 01:01:23;;;;;;;;;;;;;;;16.54;100.00;95866.28;1053053;28;19912;-71
2021/07/29 01:01:54;;;;;;;;;;;;;;;16.54;100.00;95863.56;1053050;28;20388;-71
2021/07/29 01:02:24;;;;;;;;;;;;;;;16.54;100.00;95857.41;1057222;28;19919;-71
2021/07/29 01:02:54;;;;;;;;;;;;;;;16.55;100.00;95862.47;1053336;28;19900;-71
2021/07/29 01:03:24;;;;;;;;;;;;;;;16.53;100.00;95853.06;1048815;28;20396;-71
2021/07/29 01:03:55;;;;;;;;;;;;;;;16.55;100.00;95857.06;1048759;28;20019;-71
2021/07/29 01:04:25;;;;;;;;;;;;;;;16.56;100.00;95861.34;1048842;28;19939;-71
2021/07/29 01:04:55;;;;;;;;;;;;;;;16.55;100.00;95854.38;1048868;28;20348;-71
2021/07/29 01:05:26;;;;;;;;;;;;;;;16.54;100.00;95852.78;1053339;28;19913;-71
2021/07/29 01:05:56;;;;;;;;;;;;;;;16.53;100.00;95851.22;1053414;28;19904;-71
2021/07/29 01:06:27;;;;;;;;;;;;;;;16.53;100.00;95853.91;1053205;28;20006;-71
2021/07/29 01:06:57;;;;;;;;;;;;;;;16.53;100.00;95850.38;1053312;28;19928;-72
2021/07/29 01:07:27;;;;;;;;;;;;;;;16.52;100.00;95849.59;1053396;28;19945;-69
2021/07/29 01:07:58;;;;;;;;;;;;;;;16.52;100.00;95846.88;1053848;28;19904;-77
2021/07/29 01:08:28;;;;;;;;;;;;;;;16.55;100.00;95846.28;1053496;28;20299;-69
2021/07/29 01:09:00;;;;;;;;;;;;;;;16.56;100.00;95847.88;1053263;28;20307;-67
2021/07/29 01:09:30;;;;;;;;;;;;;;;16.53;100.00;95851.22;1053296;28;19919;-69
2021/07/29 01:10:02;;;;;;;;;;;;;;;16.56;100.00;95844.38;1053302;28;20198;-72
2021/07/29 01:10:33;;;;;;;;;;;;;;;16.56;100.00;95841.69;1053055;28;19901;-68
2021/07/29 01:11:03;;;;;;;;;;;;;;;16.54;100.00;95841.22;1049014;28;19913;-68
2021/07/29 01:11:34;;;;;;;;;;;;;;;16.55;100.00;95840.88;1049796;28;19909;-68
2021/07/29 01:12:04;;;;;;;;;;;;;;;16.55;100.00;95843.59;1053320;28;20265;-68
2021/07/29 01:12:34;;;;;;;;;;;;;;;16.55;100.00;95842.78;1053286;28;19905;-68
2021/07/29 01:13:05;;;;;;;;;;;;;;;16.56;100.00;95844.38;1053213;28;19910;-68
2021/07/29 01:13:35;;;;;;;;;;;;;;;16.57;100.00;95854.06;1053354;28;20349;-68
2021/07/29 01:14:05;;;;;;;;;;;;;;;16.56;100.00;95847.88;1053208;28;19990;-68
2021/07/29 01:14:36;;;;;;;;;;;;;;;16.54;100.00;95847.41;1053248;28;19980;-68
2021/07/29 01:15:06;;;;;;;;;;;;;;;16.55;100.00;95846.28;1053244;28;19900;-68
2021/07/29 01:15:36;;;;;;;;;;;;;;;16.54;100.00;95849.28;1053257;28;20431;-68
2021/07/29 01:16:07;;;;;;;;;;;;;;;16.49;100.00;95844.03;1053227;28;20230;-68
2021/07/29 01:16:37;;;;;;;;;;;;;;;16.48;100.00;95840.56;1053114;28;19904;-66
2021/07/29 01:17:07;;;;;;;;;;;;;;;16.47;100.00;95840.84;1053188;28;19981;-67
2021/07/29 01:17:37;;;;;;;;;;;;;;;16.51;100.00;95847.22;1053282;28;19946;-67
2021/07/29 01:18:08;;;;;;;;;;;;;;;16.50;100.00;95849.13;1053172;28;19908;-67
2021/07/29 01:18:38;;;;;;;;;;;;;;;16.51;100.00;95848.00;1053305;28;19916;-67
2021/07/29 01:19:09;;;;;;;;;;;;;;;16.50;100.00;95849.13;1048653;28;20351;-68
2021/07/29 01:19:39;;;;;;;;;;;;;;;16.49;100.00;95844.84;1048812;28;19916;-68
2021/07/29 01:20:10;;;;;;;;;;;;;;;16.49;100.00;95846.75;1048762;28;19908;-67
2021/07/29 01:20:40;;;;;;;;;;;;;;;16.50;100.00;95840.22;1048825;28;19935;-67
2021/07/29 01:21:10;;;;;;;;;;;;;;;16.52;100.00;95844.19;1053253;28;19948;-67
2021/07/29 01:21:40;;;;;;;;;;;;;;;16.51;100.00;95841.81;1053279;28;20403;-67
2021/07/29 01:22:11;;;;;;;;;;;;;;;16.51;100.00;95839.91;1053265;28;19912;-67
2021/07/29 01:22:41;;;;;;;;;;;;;;;16.51;100.00;95839.91;1053273;28;19952;-68
2021/07/29 01:23:11;;;;;;;;;;;;;;;16.54;100.00;95843.91;1053185;28;19912;-68
2021/07/29 01:23:42;;;;;;;;;;;;;;;16.52;100.00;95843.41;1053264;28;19923;-68
2021/07/29 01:24:12;;;;;;;;;;;;;;;16.54;100.00;95847.41;1053289;28;20367;-67
2021/07/29 01:24:42;;;;;;;;;;;;;;;16.56;100.00;95838.97;1053159;28;19952;-67
2021/07/29 01:25:12;;;;;;;;;;;;;;;16.58;100.00;95836.75;1053174;28;19912;-67
2021/07/29 01:25:43;;;;;;;;;;;;;;;16.56;100.00;95839.78;1053184;28;19974;-67
2021/07/29 01:26:13;;;;;;;;;;;;;;;16.55;100.00;95840.88;1053203;28;20352;-67
2021/07/29 01:26:43;;;;;;;;;;;;;;;16.57;100.00;95837.88;1053067;28;19923;-67
2021/07/29 01:27:16;;;;;;;;;;;;;;;16.57;100.00;95841.34;1048596;28;19916;-67
2021/07/29 01:27:47;;;;;;;;;;;;;;;16.58;100.00;95844.84;1048733;28;19939;-67
2021/07/29 01:28:17;;;;;;;;;;;;;;;16.57;100.00;95841.34;1048731;28;20373;-67
2021/07/29 01:28:47;;;;;;;;;;;;;;;16.58;100.00;95842.16;1049066;28;20415;-67
2021/07/29 01:29:18;;;;;;;;;;;;;;;16.58;100.00;95845.66;1053202;28;19911;-67
2021/07/29 01:29:48;;;;;;;;;;;;;;;16.57;100.00;95835.97;1053232;28;19919;-67
2021/07/29 01:30:18;;;;;;;;;;;;;;;16.60;100.00;95839.97;1053143;28;20004;-67
2021/07/29 01:30:48;;;;;;;;;;;;;;;16.60;100.00;95838.06;1053122;28;19916;-68
2021/07/29 01:31:19;;;;;;;;;;;;;;;16.58;100.00;95837.56;1052766;28;20269;-67
2021/07/29 01:31:49;;;;;;;;;;;;;;;16.60;100.00;95840.75;1053229;28;19920;-67
2021/07/29 01:32:19;;;;;;;;;;;;;;;16.60;100.00;95839.97;1052874;28;19912;-67
2021/07/29 01:32:50;;;;;;;;;;;;;;;16.61;100.00;95839.63;1053293;28;19916;-67
2021/07/29 01:33:20;;;;;;;;;;;;;;;16.58;100.00;95844.84;1053055;28;19943;-67
2021/07/29 01:33:50;;;;;;;;;;;;;;;16.58;100.00;95840.28;1053265;28;19912;-67
2021/07/29 01:34:21;;;;;;;;;;;;;;;16.59;100.00;95838.38;1044510;28;20425;-67
2021/07/29 01:34:51;;;;;;;;;;;;;;;16.60;100.00;95839.97;1044430;28;19920;-67
2021/07/29 01:35:21;;;;;;;;;;;;;;;16.62;100.00;95843.13;1044604;28;19925;-67
2021/07/29 01:35:52;;;;;;;;;;;;;;;16.61;100.00;95833.44;1040475;28;19958;-67
2021/07/29 01:36:22;;;;;;;;;;;;;;;16.59;100.00;95838.38;1048753;28;20309;-67
2021/07/29 01:36:52;;;;;;;;;;;;;;;16.58;100.00;95842.97;1048728;28;19908;-67
2021/07/29 01:37:23;;;;;;;;;;;;;;;16.57;100.00;95840.56;1048718;28;20109;-67
2021/07/29 01:37:53;;;;;;;;;;;;;;;16.56;100.00;95836.28;1053126;28;19908;-67
2021/07/29 01:38:24;;;;;;;;;;;;;;;16.54;100.00;95836.59;1053109;28;19951;-67
2021/07/29 01:38:54;;;;;;;;;;;;;;;16.56;100.00;95834.38;1053126;28;20364;-67
2021/07/29 01:39:24;;;;;;;;;;;;;;;16.57;100.00;95837.88;1053247;28;20005;-67
2021/07/29 01:39:55;;;;;;;;;;;;;;;16.57;100.00;95833.25;1053122;28;19909;-67
2021/07/29 01:40:25;;;;;;;;;;;;;;;16.59;100.00;95839.16;1053229;28;19935;-67
2021/07/29 01:40:55;;;;;;;;;;;;;;;16.61;100.00;95828.84;1048556;28;19912;-67
2021/07/29 01:41:25;;;;;;;;;;;;;;;16.64;100.00;95832.84;1048738;28;20484;-67
2021/07/29 01:41:56;;;;;;;;;;;;;;;16.60;100.00;95824.56;1048611;28;20286;-67
2021/07/29 01:42:26;;;;;;;;;;;;;;;16.59;100.00;95831.06;1048625;28;19963;-67
2021/07/29 01:42:56;;;;;;;;;;;;;;;16.62;100.00;95827.72;1053195;28;19914;-67
2021/07/29 01:43:26;;;;;;;;;;;;;;;16.62;100.00;95832.34;1053154;28;20434;-67
2021/07/29 01:43:57;;;;;;;;;;;;;;;16.62;100.00;95832.34;1053129;28;19912;-67
2021/07/29 01:44:27;;;;;;;;;;;;;;;16.62;100.00;95827.72;1053196;28;19994;-67
2021/07/29 01:44:57;;;;;;;;;;;;;;;16.62;100.00;95832.34;1053206;28;20002;-67
2021/07/29 01:45:28;;;;;;;;;;;;;;;16.64;100.00;95836.31;1053212;28;19908;-67
2021/07/29 01:45:58;;;;;;;;;;;;;;;16.63;100.00;95826.66;1053081;28;20381;-67
2021/07/29 01:46:28;;;;;;;;;;;;;;;16.64;100.00;95833.63;1053109;28;19904;-67
2021/07/29 01:46:59;;;;;;;;;;;;;;;16.63;100.00;95832.03;1052951;28;19947;-67
2021/07/29 01:47:29;;;;;;;;;;;;;;;16.62;100.00;95835.81;1053054;28;20361;-67
2021/07/29 01:47:59;;;;;;;;;;;;;;;16.63;100.00;95836.63;1053117;28;19923;-67
2021/07/29 01:48:30;;;;;;;;;;;;;;;16.64;100.00;95836.31;1053135;28;19935;-67
2021/07/29 01:49:00;;;;;;;;;;;;;;;16.64;100.00;95828.22;1053105;28;20516;-67
2021/07/29 01:49:30;;;;;;;;;;;;;;;16.67;100.00;95840.28;1053193;28;19912;-68
2021/07/29 01:50:01;;;;;;;;;;;;;;;16.66;100.00;95827.91;1053148;28;19908;-68
2021/07/29 01:50:31;;;;;;;;;;;;;;;16.66;100.00;95840.59;1053166;28;19908;-68
2021/07/29 01:51:01;;;;;;;;;;;;;;;16.61;100.00;95828.06;1053203;28;19912;-68
2021/07/29 01:51:32;;;;;;;;;;;;;;;16.62;100.00;95830.44;1053199;28;19981;-68
2021/07/29 01:52:02;;;;;;;;;;;;;;;16.64;100.00;95833.63;1048523;28;20407;-68
2021/07/29 01:52:36;;;;;;;;;;;;;;;16.64;100.00;95836.31;1044289;28;19920;-68
2021/07/29 01:53:06;;;;;;;;;;;;;;;16.62;100.00;95830.44;1044497;28;19913;-68
2021/07/29 01:53:36;;;;;;;;;;;;;;;16.63;100.00;95833.91;1044967;28;20424;-68
2021/07/29 01:54:07;;;;;;;;;;;;;;;16.64;100.00;95833.63;1049162;28;19989;-67
2021/07/29 01:54:37;;;;;;;;;;;;;;;16.67;100.00;95834.88;1053104;28;20373;-67
2021/07/29 01:55:07;;;;;;;;;;;;;;;16.67;100.00;95831.41;1053146;28;20289;-67
2021/07/29 01:55:42;;;;;;;;;;;;;;;16.59;100.00;95835.66;1052687;28;19924;-67
2021/07/29 01:56:12;;;;;;;;;;;;;;;16.59;100.00;95835.66;1053102;28;19920;-68
2021/07/29 01:56:43;;;;;;;;;;;;;;;16.60;100.00;95831.84;1052802;28;19948;-67
2021/07/29 01:57:13;;;;;;;;;;;;;;;16.62;100.00;95837.72;1053031;28;20326;-68
2021/07/29 01:57:44;;;;;;;;;;;;;;;16.64;100.00;95844.41;1053123;28;19915;-68
2021/07/29 01:58:15;;;;;;;;;;;;;;;16.65;100.00;95845.22;1053038;28;19998;-67
2021/07/29 01:58:45;;;;;;;;;;;;;;;16.65;100.00;95842.50;1053084;28;20337;-67
2021/07/29 01:59:15;;;;;;;;;;;;;;;16.63;100.00;95842.00;1053071;28;19956;-67
2021/07/29 01:59:46;;;;;;;;;;;;;;;16.64;100.00;95852.50;1053130;28;19912;-67
2021/07/29 02:00:16;;;;;;;;;;;;;;;16.64;100.00;95839.03;1048517;28;19911;-67
2021/07/29 02:00:47;;;;;;;;;;;;;;;16.67;100.00;95845.69;1048592;28;19916;-67
2021/07/29 02:01:21;;;;;;;;;;;;;;;16.64;100.00;95847.13;1048625;28;20058;-67
2021/07/29 02:01:51;;;;;;;;;;;;;;;16.66;100.00;95848.69;1049215;28;19920;-68
2021/07/29 02:02:21;;;;;;;;;;;;;;;16.65;100.00;95847.91;1053096;28;20337;-68
2021/07/29 02:02:51;;;;;;;;;;;;;;;16.64;100.00;95841.72;1053108;28;19928;-67
2021/07/29 02:03:22;;;;;;;;;;;;;;;16.66;100.00;95846.00;1053117;28;19923;-67
2021/07/29 02:03:52;;;;;;;;;;;;;;;16.65;100.00;95842.50;1053066;28;19923;-67
2021/07/29 02:04:22;;;;;;;;;;;;;;;16.68;100.00;95839.19;1053136;28;19985;-67
2021/07/29 02:04:52;;;;;;;;;;;;;;;16.67;100.00;95847.59;1052911;28;20353;-67
2021/07/29 02:05:23;;;;;;;;;;;;;;;16.64;100.00;95843.63;1053031;28;19915;-67
2021/07/29 02:05:53;;;;;;;;;;;;;;;16.66;100.00;95843.31;1053146;28;19916;-68
2021/07/29 02:06:23;;;;;;;;;;;;;;;16.64;100.00;95841.72;1053122;28;20368;-68
2021/07/29 02:06:54;;;;;;;;;;;;;;;16.64;100.00;95843.63;1053055;28;19928;-67
2021/07/29 02:07:24;;;;;;;;;;;;;;;16.59;100.00;95833.78;1053084;28;19900;-67
2021/07/29 02:07:55;;;;;;;;;;;;;;;16.60;100.00;95837.25;1053057;28;19982;-67
2021/07/29 02:08:25;;;;;;;;;;;;;;;16.56;100.00;95845.16;1053050;28;19950;-67
2021/07/29 02:08:55;;;;;;;;;;;;;;;16.56;100.00;95845.16;1053053;28;19916;-67
2021/07/29 02:09:25;;;;;;;;;;;;;;;16.55;100.00;95840.09;1053069;28;19957;-68
2021/07/29 02:09:56;;;;;;;;;;;;;;;16.55;100.00;95845.50;1053036;28;19917;-67
2021/07/29 02:10:26;;;;;;;;;;;;;;;16.53;100.00;95837.72;1053093;28;19940;-67
2021/07/29 02:10:56;;;;;;;;;;;;;;;16.52;100.00;95840.69;1053018;28;20323;-67
2021/07/29 02:11:30;;;;;;;;;;;;;;;16.48;100.00;95840.56;1053090;28;19905;-67
2021/07/29 02:12:00;;;;;;;;;;;;;;;16.50;100.00;95845.63;1053112;28;19948;-67
2021/07/29 02:12:31;;;;;;;;;;;;;;;16.46;100.00;95847.34;1053108;28;20368;-67
2021/07/29 02:13:01;;;;;;;;;;;;;;;16.47;100.00;95846.22;1053102;28;19912;-68
2021/07/29 02:13:31;;;;;;;;;;;;;;;16.49;100.00;95850.22;1052998;28;20395;-68
2021/07/29 02:14:02;;;;;;;;;;;;;;;16.49;100.00;95841.34;1053134;28;20010;-68
2021/07/29 02:14:32;;;;;;;;;;;;;;;16.51;100.00;95847.22;1053086;28;19911;-68
2021/07/29 02:15:02;;;;;;;;;;;;;;;16.52;100.00;95854.19;1053013;28;19923;-68
2021/07/29 02:15:33;;;;;;;;;;;;;;;16.52;100.00;95851.50;1052969;28;20390;-67
2021/07/29 02:16:12;;;;;;;;;;;;;;;16.48;100.00;95845.94;1053061;28;19916;-67
2021/07/29 02:16:42;;;;;;;;;;;;;;;16.48;100.00;95848.66;1053034;28;19904;-67
2021/07/29 02:17:13;;;;;;;;;;;;;;;16.50;100.00;95859.91;1053128;28;19939;-67
2021/07/29 02:17:43;;;;;;;;;;;;;;;16.48;100.00;95845.13;1052992;28;20368;-67
2021/07/29 02:18:13;;;;;;;;;;;;;;;16.46;100.00;95852.75;1053066;28;19998;-67
2021/07/29 02:18:44;;;;;;;;;;;;;;;16.47;100.00;95855.13;1053012;28;20526;-67
2021/07/29 02:19:14;;;;;;;;;;;;;;;16.48;100.00;95848.66;1053075;28;19908;-67
2021/07/29 02:19:44;;;;;;;;;;;;;;;16.47;100.00;95857.03;1053050;28;20331;-67
2021/07/29 02:20:15;;;;;;;;;;;;;;;16.47;100.00;95859.72;1053108;28;20323;-68
2021/07/29 02:20:45;;;;;;;;;;;;;;;16.48;100.00;95850.50;1052997;28;19939;-67
2021/07/29 02:21:15;;;;;;;;;;;;;;;16.46;100.00;95853.53;1053144;28;20036;-68
2021/07/29 02:21:45;;;;;;;;;;;;;;;16.45;100.00;95846.56;1052958;28;19912;-67
2021/07/29 02:22:16;;;;;;;;;;;;;;;16.42;100.00;95849.06;1053074;28;19918;-67
2021/07/29 02:22:46;;;;;;;;;;;;;;;16.43;100.00;95850.66;1056833;28;19915;-67
2021/07/29 02:23:16;;;;;;;;;;;;;;;16.42;100.00;95851.75;1056938;28;19974;-68
2021/07/29 02:23:47;;;;;;;;;;;;;;;16.42;100.00;95855.25;1056915;28;19919;-67
2021/07/29 02:24:17;;;;;;;;;;;;;;;16.43;100.00;95854.16;1056886;28;19943;-68
2021/07/29 02:24:47;;;;;;;;;;;;;;;16.42;100.00;95849.84;1053074;28;19909;-67
2021/07/29 02:25:18;;;;;;;;;;;;;;;16.41;100.00;95856.38;1053025;28;20364;-67
2021/07/29 02:25:48;;;;;;;;;;;;;;;16.44;100.00;95849.56;1052770;28;19909;-67
2021/07/29 02:26:18;;;;;;;;;;;;;;;16.46;100.00;95855.44;1053184;28;20013;-67
2021/07/29 02:26:48;;;;;;;;;;;;;;;16.44;100.00;95858.44;1053034;28;19940;-67
2021/07/29 02:27:19;;;;;;;;;;;;;;;16.44;100.00;95855.75;1053058;28;20353;-67
2021/07/29 02:27:49;;;;;;;;;;;;;;;16.44;100.00;95854.97;1052986;28;20372;-68
2021/07/29 02:28:19;;;;;;;;;;;;;;;16.42;100.00;95852.56;1053051;28;20345;-68
2021/07/29 02:28:50;;;;;;;;;;;;;;;16.43;100.00;95856.88;1052944;28;19908;-67
2021/07/29 02:29:20;;;;;;;;;;;;;;;16.43;100.00;95850.66;1053072;28;19904;-68
2021/07/29 02:29:53;;;;;;;;;;;;;;;16.43;100.00;95859.56;1052911;28;20429;-68
2021/07/29 02:30:24;;;;;;;;;;;;;;;16.39;100.00;95845.09;1052976;28;19912;-68
2021/07/29 02:30:55;;;;;;;;;;;;;;;16.37;100.00;95858.09;1052984;28;19909;-67
2021/07/29 02:31:25;;;;;;;;;;;;;;;16.38;100.00;95860.50;1053033;28;20345;-67
2021/07/29 02:31:55;;;;;;;;;;;;;;;16.40;100.00;95862.88;1052970;28;19914;-67
2021/07/29 02:32:35;;;;;;;;;;;;;;;16.38;100.00;95852.41;1053061;28;20269;-67
2021/07/29 02:33:05;;;;;;;;;;;;;;;16.38;100.00;95852.41;1052748;28;19924;-67
2021/07/29 02:33:35;;;;;;;;;;;;;;;16.37;100.00;95856.19;1052996;28;19924;-68
2021/07/29 02:34:05;;;;;;;;;;;;;;;16.41;100.00;95853.66;1052910;28;20331;-68
2021/07/29 02:34:36;;;;;;;;;;;;;;;16.39;100.00;95850.50;1052995;28;19908;-67
2021/07/29 02:35:06;;;;;;;;;;;;;;;16.32;100.00;95848.22;1052775;28;19920;-67
2021/07/29 02:35:37;;;;;;;;;;;;;;;16.33;100.00;95859.84;1053049;28;19908;-68
2021/07/29 02:36:07;;;;;;;;;;;;;;;16.31;100.00;95859.31;1052932;28;19978;-68
2021/07/29 02:36:37;;;;;;;;;;;;;;;16.33;100.00;95857.13;1053101;28;19911;-67
2021/07/29 02:37:07;;;;;;;;;;;;;;;16.33;100.00;95857.94;1053041;28;19916;-67
2021/07/29 02:37:38;;;;;;;;;;;;;;;16.32;100.00;95861.72;1053099;28;19965;-67
2021/07/29 02:38:08;;;;;;;;;;;;;;;16.33;100.00;95855.22;1052809;28;19958;-67
2021/07/29 02:38:38;;;;;;;;;;;;;;;16.33;100.00;95855.22;1052952;28;19909;-68